sensor_id;sensor_type;location;lat;lon;timestamp;P1;durP1;ratioP1;P2;durP2;ratioP2
5841;SDS011;2947;52.276;9.946;2022-10-22T00:01:02;14.82;;;8.00;;
5841;SDS011;2947;52.276;9.946;2022-10-22T00:03:28;14.48;;;8.48;;
5841;SDS011;2947;52.276;9.946;2022-10-22T00:05:54;10.90;;;7.63;;
5841;SDS011;2947;52.276;9.946;2022-10-22T00:08:19;12.05;;;7.72;;
5841;SDS011;2947;52.276;9.946;2022-10-22T00:10:45;10.32;;;7.10;;
5841;SDS011;2947;52.276;9.946;2022-10-22T00:13:11;13.88;;;7.05;;
5841;SDS011;2947;52.276;9.946;2022-10-22T00:15:37;10.95;;;6.10;;
5841;SDS011;2947;52.276;9.946;2022-10-22T00:18:03;15.52;;;8.13;;
5841;SDS011;2947;52.276;9.946;2022-10-22T00:20:29;14.63;;;7.68;;
5841;SDS011;2947;52.276;9.946;2022-10-22T00:22:55;12.43;;;7.70;;
5841;SDS011;2947;52.276;9.946;2022-10-22T00:25:21;12.02;;;8.38;;
5841;SDS011;2947;52.276;9.946;2022-10-22T00:27:47;16.70;;;7.60;;
5841;SDS011;2947;52.276;9.946;2022-10-22T00:30:12;12.88;;;7.55;;
5841;SDS011;2947;52.276;9.946;2022-10-22T00:32:38;13.70;;;8.60;;
5841;SDS011;2947;52.276;9.946;2022-10-22T00:35:04;28.27;;;8.68;;
5841;SDS011;2947;52.276;9.946;2022-10-22T00:37:30;17.10;;;8.07;;
5841;SDS011;2947;52.276;9.946;2022-10-22T00:39:56;17.30;;;8.70;;
5841;SDS011;2947;52.276;9.946;2022-10-22T00:42:23;16.15;;;9.75;;
5841;SDS011;2947;52.276;9.946;2022-10-22T00:44:57;11.23;;;8.32;;
5841;SDS011;2947;52.276;9.946;2022-10-22T00:47:31;13.88;;;8.77;;
5841;SDS011;2947;52.276;9.946;2022-10-22T00:50:04;15.15;;;9.25;;
5841;SDS011;2947;52.276;9.946;2022-10-22T00:52:35;19.60;;;9.90;;
5841;SDS011;2947;52.276;9.946;2022-10-22T00:55:02;14.18;;;8.82;;
5841;SDS011;2947;52.276;9.946;2022-10-22T00:57:28;15.70;;;9.80;;
5841;SDS011;2947;52.276;9.946;2022-10-22T00:59:54;16.20;;;8.77;;
5841;SDS011;2947;52.276;9.946;2022-10-22T01:02:21;17.60;;;9.68;;
5841;SDS011;2947;52.276;9.946;2022-10-22T01:04:48;14.48;;;9.30;;
5841;SDS011;2947;52.276;9.946;2022-10-22T01:07:17;15.38;;;9.43;;
5841;SDS011;2947;52.276;9.946;2022-10-22T01:10:04;19.25;;;10.02;;
5841;SDS011;2947;52.276;9.946;2022-10-22T01:18:23;13.95;;;8.40;;
5841;SDS011;2947;52.276;9.946;2022-10-22T01:23:46;13.50;;;8.40;;
5841;SDS011;2947;52.276;9.946;2022-10-22T01:26:53;16.40;;;8.43;;
5841;SDS011;2947;52.276;9.946;2022-10-22T01:29:33;17.13;;;7.60;;
5841;SDS011;2947;52.276;9.946;2022-10-22T01:32:26;12.80;;;8.13;;
5841;SDS011;2947;52.276;9.946;2022-10-22T01:34:56;15.75;;;8.18;;
5841;SDS011;2947;52.276;9.946;2022-10-22T01:37:31;12.77;;;8.38;;
5841;SDS011;2947;52.276;9.946;2022-10-22T01:40:04;17.10;;;9.10;;
5841;SDS011;2947;52.276;9.946;2022-10-22T01:42:32;25.52;;;10.25;;
5841;SDS011;2947;52.276;9.946;2022-10-22T01:44:57;13.93;;;8.98;;
5841;SDS011;2947;52.276;9.946;2022-10-22T01:47:30;15.90;;;8.52;;
5841;SDS011;2947;52.276;9.946;2022-10-22T01:50:21;13.32;;;8.25;;
5841;SDS011;2947;52.276;9.946;2022-10-22T02:01:58;11.70;;;5.50;;
5841;SDS011;2947;52.276;9.946;2022-10-22T02:04:49;10.60;;;6.50;;
5841;SDS011;2947;52.276;9.946;2022-10-22T02:07:26;12.10;;;6.32;;
5841;SDS011;2947;52.276;9.946;2022-10-22T02:09:57;11.32;;;5.90;;
5841;SDS011;2947;52.276;9.946;2022-10-22T02:12:25;10.75;;;6.50;;
5841;SDS011;2947;52.276;9.946;2022-10-22T02:14:53;9.18;;;5.70;;
5841;SDS011;2947;52.276;9.946;2022-10-22T02:17:21;10.55;;;6.25;;
5841;SDS011;2947;52.276;9.946;2022-10-22T02:19:58;11.30;;;6.68;;
5841;SDS011;2947;52.276;9.946;2022-10-22T02:22:28;19.50;;;8.02;;
5841;SDS011;2947;52.276;9.946;2022-10-22T02:24:54;11.95;;;7.80;;
5841;SDS011;2947;52.276;9.946;2022-10-22T02:27:25;14.73;;;7.43;;
5841;SDS011;2947;52.276;9.946;2022-10-22T02:30:01;10.00;;;7.57;;
5841;SDS011;2947;52.276;9.946;2022-10-22T02:32:33;12.88;;;7.38;;
5841;SDS011;2947;52.276;9.946;2022-10-22T02:35:06;11.20;;;7.88;;
5841;SDS011;2947;52.276;9.946;2022-10-22T02:37:36;12.82;;;7.72;;
5841;SDS011;2947;52.276;9.946;2022-10-22T02:40:03;10.30;;;7.13;;
5841;SDS011;2947;52.276;9.946;2022-10-22T02:42:30;10.45;;;6.90;;
5841;SDS011;2947;52.276;9.946;2022-10-22T02:44:56;12.23;;;7.55;;
5841;SDS011;2947;52.276;9.946;2022-10-22T02:47:21;13.73;;;7.18;;
5841;SDS011;2947;52.276;9.946;2022-10-22T02:49:47;12.75;;;7.30;;
5841;SDS011;2947;52.276;9.946;2022-10-22T02:52:13;14.07;;;8.07;;
5841;SDS011;2947;52.276;9.946;2022-10-22T02:54:38;15.10;;;8.32;;
5841;SDS011;2947;52.276;9.946;2022-10-22T02:57:04;13.05;;;7.80;;
5841;SDS011;2947;52.276;9.946;2022-10-22T02:59:30;9.98;;;6.80;;
5841;SDS011;2947;52.276;9.946;2022-10-22T03:01:55;13.88;;;8.60;;
5841;SDS011;2947;52.276;9.946;2022-10-22T03:04:21;15.55;;;8.27;;
5841;SDS011;2947;52.276;9.946;2022-10-22T03:06:47;13.73;;;7.85;;
5841;SDS011;2947;52.276;9.946;2022-10-22T03:09:13;13.45;;;7.50;;
5841;SDS011;2947;52.276;9.946;2022-10-22T03:11:39;10.68;;;7.45;;
5841;SDS011;2947;52.276;9.946;2022-10-22T03:14:04;16.58;;;7.93;;
5841;SDS011;2947;52.276;9.946;2022-10-22T03:16:30;10.50;;;7.38;;
5841;SDS011;2947;52.276;9.946;2022-10-22T03:18:56;14.40;;;8.35;;
5841;SDS011;2947;52.276;9.946;2022-10-22T03:24:00;22.38;;;9.20;;
5841;SDS011;2947;52.276;9.946;2022-10-22T03:26:34;14.70;;;8.40;;
5841;SDS011;2947;52.276;9.946;2022-10-22T03:29:01;16.27;;;8.32;;
5841;SDS011;2947;52.276;9.946;2022-10-22T03:31:27;14.82;;;8.52;;
5841;SDS011;2947;52.276;9.946;2022-10-22T03:33:52;14.57;;;7.40;;
5841;SDS011;2947;52.276;9.946;2022-10-22T03:36:18;18.67;;;7.90;;
5841;SDS011;2947;52.276;9.946;2022-10-22T03:38:44;13.45;;;8.60;;
5841;SDS011;2947;52.276;9.946;2022-10-22T03:41:09;12.07;;;7.35;;
5841;SDS011;2947;52.276;9.946;2022-10-22T03:43:35;14.20;;;8.68;;
5841;SDS011;2947;52.276;9.946;2022-10-22T03:46:03;12.98;;;8.30;;
5841;SDS011;2947;52.276;9.946;2022-10-22T03:48:29;12.27;;;7.28;;
5841;SDS011;2947;52.276;9.946;2022-10-22T03:50:54;13.07;;;8.35;;
5841;SDS011;2947;52.276;9.946;2022-10-22T03:53:20;14.65;;;7.68;;
5841;SDS011;2947;52.276;9.946;2022-10-22T03:55:46;11.60;;;6.68;;
5841;SDS011;2947;52.276;9.946;2022-10-22T03:58:11;14.27;;;8.25;;
5841;SDS011;2947;52.276;9.946;2022-10-22T04:00:37;10.98;;;5.93;;
5841;SDS011;2947;52.276;9.946;2022-10-22T04:03:03;13.35;;;5.97;;
5841;SDS011;2947;52.276;9.946;2022-10-22T04:05:29;13.85;;;6.50;;
5841;SDS011;2947;52.276;9.946;2022-10-22T04:07:58;8.40;;;5.60;;
5841;SDS011;2947;52.276;9.946;2022-10-22T04:10:24;7.18;;;5.47;;
5841;SDS011;2947;52.276;9.946;2022-10-22T04:12:50;9.70;;;6.20;;
5841;SDS011;2947;52.276;9.946;2022-10-22T04:15:16;12.05;;;6.35;;
5841;SDS011;2947;52.276;9.946;2022-10-22T04:17:42;13.07;;;6.43;;
5841;SDS011;2947;52.276;9.946;2022-10-22T04:20:08;11.93;;;5.82;;
5841;SDS011;2947;52.276;9.946;2022-10-22T04:22:34;11.30;;;6.22;;
5841;SDS011;2947;52.276;9.946;2022-10-22T04:25:00;12.57;;;6.32;;
5841;SDS011;2947;52.276;9.946;2022-10-22T04:27:30;12.43;;;5.78;;
5841;SDS011;2947;52.276;9.946;2022-10-22T04:29:57;9.80;;;5.95;;
5841;SDS011;2947;52.276;9.946;2022-10-22T04:32:23;10.80;;;6.68;;
5841;SDS011;2947;52.276;9.946;2022-10-22T04:34:50;11.48;;;6.70;;
5841;SDS011;2947;52.276;9.946;2022-10-22T04:37:16;8.20;;;5.85;;
5841;SDS011;2947;52.276;9.946;2022-10-22T04:39:41;9.80;;;6.05;;
5841;SDS011;2947;52.276;9.946;2022-10-22T04:42:07;11.35;;;6.28;;
5841;SDS011;2947;52.276;9.946;2022-10-22T04:44:33;9.82;;;4.90;;
5841;SDS011;2947;52.276;9.946;2022-10-22T04:46:58;10.60;;;5.93;;
5841;SDS011;2947;52.276;9.946;2022-10-22T04:49:24;9.55;;;6.00;;
5841;SDS011;2947;52.276;9.946;2022-10-22T04:51:50;10.23;;;5.22;;
5841;SDS011;2947;52.276;9.946;2022-10-22T04:54:16;10.70;;;5.63;;
5841;SDS011;2947;52.276;9.946;2022-10-22T04:56:41;14.85;;;6.35;;
5841;SDS011;2947;52.276;9.946;2022-10-22T04:59:07;12.98;;;5.63;;
5841;SDS011;2947;52.276;9.946;2022-10-22T05:01:37;8.32;;;5.22;;
5841;SDS011;2947;52.276;9.946;2022-10-22T05:04:05;7.65;;;5.57;;
5841;SDS011;2947;52.276;9.946;2022-10-22T05:06:34;7.20;;;5.30;;
5841;SDS011;2947;52.276;9.946;2022-10-22T05:09:02;10.77;;;6.00;;
5841;SDS011;2947;52.276;9.946;2022-10-22T05:11:35;13.45;;;5.82;;
5841;SDS011;2947;52.276;9.946;2022-10-22T05:14:03;13.98;;;6.93;;
5841;SDS011;2947;52.276;9.946;2022-10-22T05:16:32;14.25;;;5.88;;
5841;SDS011;2947;52.276;9.946;2022-10-22T05:18:59;10.30;;;5.72;;
5841;SDS011;2947;52.276;9.946;2022-10-22T05:21:25;9.90;;;5.50;;
5841;SDS011;2947;52.276;9.946;2022-10-22T05:23:52;9.95;;;5.20;;
5841;SDS011;2947;52.276;9.946;2022-10-22T05:26:20;9.02;;;6.03;;
5841;SDS011;2947;52.276;9.946;2022-10-22T05:28:47;12.63;;;5.32;;
5841;SDS011;2947;52.276;9.946;2022-10-22T05:31:14;8.95;;;5.57;;
5841;SDS011;2947;52.276;9.946;2022-10-22T05:33:41;10.90;;;5.68;;
5841;SDS011;2947;52.276;9.946;2022-10-22T05:36:08;11.27;;;5.97;;
5841;SDS011;2947;52.276;9.946;2022-10-22T05:38:38;15.10;;;6.80;;
5841;SDS011;2947;52.276;9.946;2022-10-22T05:41:08;8.88;;;5.68;;
5841;SDS011;2947;52.276;9.946;2022-10-22T05:43:45;9.85;;;6.18;;
5841;SDS011;2947;52.276;9.946;2022-10-22T05:46:16;8.80;;;6.28;;
5841;SDS011;2947;52.276;9.946;2022-10-22T05:49:04;8.13;;;5.63;;
5841;SDS011;2947;52.276;9.946;2022-10-22T05:51:32;12.05;;;6.65;;
5841;SDS011;2947;52.276;9.946;2022-10-22T05:54:00;9.18;;;6.10;;
5841;SDS011;2947;52.276;9.946;2022-10-22T05:56:29;10.02;;;7.05;;
5841;SDS011;2947;52.276;9.946;2022-10-22T05:58:56;10.98;;;6.72;;
5841;SDS011;2947;52.276;9.946;2022-10-22T06:01:30;12.45;;;7.82;;
5841;SDS011;2947;52.276;9.946;2022-10-22T06:04:00;10.10;;;6.70;;
5841;SDS011;2947;52.276;9.946;2022-10-22T06:11:53;10.63;;;7.90;;
5841;SDS011;2947;52.276;9.946;2022-10-22T06:14:20;14.05;;;7.60;;
5841;SDS011;2947;52.276;9.946;2022-10-22T06:16:47;13.65;;;7.85;;
5841;SDS011;2947;52.276;9.946;2022-10-22T06:19:14;13.75;;;8.18;;
5841;SDS011;2947;52.276;9.946;2022-10-22T06:21:45;13.00;;;8.02;;
5841;SDS011;2947;52.276;9.946;2022-10-22T06:24:11;13.00;;;7.55;;
5841;SDS011;2947;52.276;9.946;2022-10-22T06:26:37;13.98;;;7.45;;
5841;SDS011;2947;52.276;9.946;2022-10-22T06:29:04;13.65;;;8.48;;
5841;SDS011;2947;52.276;9.946;2022-10-22T06:31:29;16.00;;;8.00;;
5841;SDS011;2947;52.276;9.946;2022-10-22T06:34:01;14.55;;;8.50;;
5841;SDS011;2947;52.276;9.946;2022-10-22T06:36:28;13.35;;;8.30;;
5841;SDS011;2947;52.276;9.946;2022-10-22T06:38:54;11.80;;;8.35;;
5841;SDS011;2947;52.276;9.946;2022-10-22T06:41:20;14.30;;;8.27;;
5841;SDS011;2947;52.276;9.946;2022-10-22T06:43:47;16.75;;;8.18;;
5841;SDS011;2947;52.276;9.946;2022-10-22T06:46:14;17.95;;;8.68;;
5841;SDS011;2947;52.276;9.946;2022-10-22T06:48:42;13.65;;;7.82;;
5841;SDS011;2947;52.276;9.946;2022-10-22T06:51:13;14.07;;;8.98;;
5841;SDS011;2947;52.276;9.946;2022-10-22T06:53:38;15.07;;;8.32;;
5841;SDS011;2947;52.276;9.946;2022-10-22T06:56:05;14.07;;;8.88;;
5841;SDS011;2947;52.276;9.946;2022-10-22T06:58:47;16.42;;;7.97;;
5841;SDS011;2947;52.276;9.946;2022-10-22T07:01:19;15.60;;;8.73;;
5841;SDS011;2947;52.276;9.946;2022-10-22T07:03:51;14.35;;;9.15;;
5841;SDS011;2947;52.276;9.946;2022-10-22T07:06:18;19.40;;;9.23;;
5841;SDS011;2947;52.276;9.946;2022-10-22T07:08:45;15.32;;;9.25;;
5841;SDS011;2947;52.276;9.946;2022-10-22T07:11:12;17.10;;;8.35;;
5841;SDS011;2947;52.276;9.946;2022-10-22T07:13:41;12.90;;;8.35;;
5841;SDS011;2947;52.276;9.946;2022-10-22T07:16:07;15.73;;;8.73;;
5841;SDS011;2947;52.276;9.946;2022-10-22T07:18:34;14.43;;;8.63;;
5841;SDS011;2947;52.276;9.946;2022-10-22T07:21:02;18.38;;;8.32;;
5841;SDS011;2947;52.276;9.946;2022-10-22T07:23:29;13.68;;;8.60;;
5841;SDS011;2947;52.276;9.946;2022-10-22T07:25:55;17.98;;;8.77;;
5841;SDS011;2947;52.276;9.946;2022-10-22T07:28:21;14.88;;;7.78;;
5841;SDS011;2947;52.276;9.946;2022-10-22T07:30:46;13.23;;;8.27;;
5841;SDS011;2947;52.276;9.946;2022-10-22T07:33:12;11.15;;;7.25;;
5841;SDS011;2947;52.276;9.946;2022-10-22T07:35:38;13.93;;;8.07;;
5841;SDS011;2947;52.276;9.946;2022-10-22T07:38:06;16.58;;;7.50;;
5841;SDS011;2947;52.276;9.946;2022-10-22T07:40:33;16.17;;;8.18;;
5841;SDS011;2947;52.276;9.946;2022-10-22T07:43:00;11.65;;;7.55;;
5841;SDS011;2947;52.276;9.946;2022-10-22T07:45:26;14.65;;;8.77;;
5841;SDS011;2947;52.276;9.946;2022-10-22T07:47:51;12.20;;;6.88;;
5841;SDS011;2947;52.276;9.946;2022-10-22T07:50:17;15.35;;;7.80;;
5841;SDS011;2947;52.276;9.946;2022-10-22T07:52:43;11.23;;;7.18;;
5841;SDS011;2947;52.276;9.946;2022-10-22T07:55:09;11.70;;;7.38;;
5841;SDS011;2947;52.276;9.946;2022-10-22T07:57:35;10.82;;;6.93;;
5841;SDS011;2947;52.276;9.946;2022-10-22T08:00:02;13.77;;;7.30;;
5841;SDS011;2947;52.276;9.946;2022-10-22T08:02:29;10.18;;;6.53;;
5841;SDS011;2947;52.276;9.946;2022-10-22T08:04:55;10.20;;;6.38;;
5841;SDS011;2947;52.276;9.946;2022-10-22T08:07:21;9.10;;;6.40;;
5841;SDS011;2947;52.276;9.946;2022-10-22T08:09:47;10.50;;;6.85;;
5841;SDS011;2947;52.276;9.946;2022-10-22T08:12:13;17.58;;;7.07;;
5841;SDS011;2947;52.276;9.946;2022-10-22T08:14:39;12.50;;;6.82;;
5841;SDS011;2947;52.276;9.946;2022-10-22T08:17:05;14.93;;;7.30;;
5841;SDS011;2947;52.276;9.946;2022-10-22T08:19:31;8.88;;;6.50;;
5841;SDS011;2947;52.276;9.946;2022-10-22T08:21:57;9.68;;;6.43;;
5841;SDS011;2947;52.276;9.946;2022-10-22T08:24:23;7.97;;;5.40;;
5841;SDS011;2947;52.276;9.946;2022-10-22T08:26:51;12.02;;;5.95;;
5841;SDS011;2947;52.276;9.946;2022-10-22T08:29:18;8.45;;;5.78;;
5841;SDS011;2947;52.276;9.946;2022-10-22T08:31:46;9.57;;;5.30;;
5841;SDS011;2947;52.276;9.946;2022-10-22T08:34:13;10.45;;;5.47;;
5841;SDS011;2947;52.276;9.946;2022-10-22T08:36:39;14.40;;;5.63;;
5841;SDS011;2947;52.276;9.946;2022-10-22T08:39:05;10.68;;;4.25;;
5841;SDS011;2947;52.276;9.946;2022-10-22T08:41:31;8.90;;;4.88;;
5841;SDS011;2947;52.276;9.946;2022-10-22T08:50:00;12.07;;;4.68;;
5841;SDS011;2947;52.276;9.946;2022-10-22T08:52:26;7.60;;;4.40;;
5841;SDS011;2947;52.276;9.946;2022-10-22T08:54:56;6.50;;;4.15;;
5841;SDS011;2947;52.276;9.946;2022-10-22T09:06:07;10.02;;;4.25;;
5841;SDS011;2947;52.276;9.946;2022-10-22T09:08:41;8.23;;;4.22;;
5841;SDS011;2947;52.276;9.946;2022-10-22T09:11:13;8.02;;;3.88;;
5841;SDS011;2947;52.276;9.946;2022-10-22T09:13:48;11.98;;;3.85;;
5841;SDS011;2947;52.276;9.946;2022-10-22T09:16:24;5.22;;;3.83;;
5841;SDS011;2947;52.276;9.946;2022-10-22T09:21:53;6.10;;;3.53;;
5841;SDS011;2947;52.276;9.946;2022-10-22T09:24:32;11.48;;;3.83;;
5841;SDS011;2947;52.276;9.946;2022-10-22T09:27:08;13.77;;;3.97;;
5841;SDS011;2947;52.276;9.946;2022-10-22T09:29:37;7.35;;;2.90;;
5841;SDS011;2947;52.276;9.946;2022-10-22T09:32:02;10.05;;;3.70;;
5841;SDS011;2947;52.276;9.946;2022-10-22T09:34:29;7.90;;;3.78;;
5841;SDS011;2947;52.276;9.946;2022-10-22T09:37:02;7.68;;;3.53;;
5841;SDS011;2947;52.276;9.946;2022-10-22T09:39:39;5.22;;;3.13;;
5841;SDS011;2947;52.276;9.946;2022-10-22T09:42:10;12.15;;;5.30;;
5841;SDS011;2947;52.276;9.946;2022-10-22T09:44:40;8.52;;;3.20;;
5841;SDS011;2947;52.276;9.946;2022-10-22T09:47:25;4.78;;;3.65;;
5841;SDS011;2947;52.276;9.946;2022-10-22T09:53:21;5.88;;;3.28;;
5841;SDS011;2947;52.276;9.946;2022-10-22T09:55:52;4.28;;;3.03;;
5841;SDS011;2947;52.276;9.946;2022-10-22T09:58:24;6.63;;;3.20;;
5841;SDS011;2947;52.276;9.946;2022-10-22T10:00:52;5.07;;;2.97;;
5841;SDS011;2947;52.276;9.946;2022-10-22T10:03:22;6.82;;;3.25;;
5841;SDS011;2947;52.276;9.946;2022-10-22T10:05:55;5.72;;;3.00;;
5841;SDS011;2947;52.276;9.946;2022-10-22T10:08:23;5.10;;;2.90;;
5841;SDS011;2947;52.276;9.946;2022-10-22T10:10:54;4.15;;;2.60;;
5841;SDS011;2947;52.276;9.946;2022-10-22T10:13:57;8.25;;;3.08;;
5841;SDS011;2947;52.276;9.946;2022-10-22T10:16:52;5.40;;;2.78;;
5841;SDS011;2947;52.276;9.946;2022-10-22T10:19:37;6.25;;;3.03;;
5841;SDS011;2947;52.276;9.946;2022-10-22T10:22:18;5.70;;;2.92;;
5841;SDS011;2947;52.276;9.946;2022-10-22T10:25:10;4.40;;;2.45;;
5841;SDS011;2947;52.276;9.946;2022-10-22T10:33:57;6.10;;;2.60;;
5841;SDS011;2947;52.276;9.946;2022-10-22T10:36:44;6.32;;;2.97;;
5841;SDS011;2947;52.276;9.946;2022-10-22T10:39:26;6.28;;;2.55;;
5841;SDS011;2947;52.276;9.946;2022-10-22T10:45:31;6.13;;;2.53;;
5841;SDS011;2947;52.276;9.946;2022-10-22T10:54:41;7.15;;;2.85;;
5841;SDS011;2947;52.276;9.946;2022-10-22T11:00:32;5.95;;;2.90;;
5841;SDS011;2947;52.276;9.946;2022-10-22T11:03:14;7.13;;;2.83;;
5841;SDS011;2947;52.276;9.946;2022-10-22T11:06:17;6.38;;;3.13;;
5841;SDS011;2947;52.276;9.946;2022-10-22T11:11:54;11.15;;;2.70;;
5841;SDS011;2947;52.276;9.946;2022-10-22T11:16:58;5.20;;;2.58;;
5841;SDS011;2947;52.276;9.946;2022-10-22T11:19:37;5.40;;;2.60;;
5841;SDS011;2947;52.276;9.946;2022-10-22T11:22:36;5.47;;;2.58;;
5841;SDS011;2947;52.276;9.946;2022-10-22T11:30:14;7.05;;;3.17;;
5841;SDS011;2947;52.276;9.946;2022-10-22T11:32:45;7.13;;;2.20;;
5841;SDS011;2947;52.276;9.946;2022-10-22T11:35:21;4.88;;;2.30;;
5841;SDS011;2947;52.276;9.946;2022-10-22T11:37:50;5.10;;;2.17;;
5841;SDS011;2947;52.276;9.946;2022-10-22T11:40:34;4.28;;;2.00;;
5841;SDS011;2947;52.276;9.946;2022-10-22T11:43:04;6.75;;;2.65;;
5841;SDS011;2947;52.276;9.946;2022-10-22T11:45:55;7.13;;;2.88;;
5841;SDS011;2947;52.276;9.946;2022-10-22T11:49:15;7.90;;;2.80;;
5841;SDS011;2947;52.276;9.946;2022-10-22T11:51:44;7.85;;;2.63;;
5841;SDS011;2947;52.276;9.946;2022-10-22T11:54:25;3.88;;;2.20;;
5841;SDS011;2947;52.276;9.946;2022-10-22T11:57:28;10.45;;;3.70;;
5841;SDS011;2947;52.276;9.946;2022-10-22T11:59:52;9.20;;;2.20;;
5841;SDS011;2947;52.276;9.946;2022-10-22T12:02:44;8.38;;;2.17;;
5841;SDS011;2947;52.276;9.946;2022-10-22T12:05:16;7.75;;;2.95;;
5841;SDS011;2947;52.276;9.946;2022-10-22T12:10:27;10.02;;;2.40;;
5841;SDS011;2947;52.276;9.946;2022-10-22T12:13:03;4.07;;;2.00;;
5841;SDS011;2947;52.276;9.946;2022-10-22T12:15:45;6.53;;;2.25;;
5841;SDS011;2947;52.276;9.946;2022-10-22T12:18:13;6.70;;;1.95;;
5841;SDS011;2947;52.276;9.946;2022-10-22T12:20:39;5.55;;;1.90;;
5841;SDS011;2947;52.276;9.946;2022-10-22T12:23:05;5.90;;;2.35;;
5841;SDS011;2947;52.276;9.946;2022-10-22T12:25:36;5.13;;;2.17;;
5841;SDS011;2947;52.276;9.946;2022-10-22T12:28:03;11.25;;;2.20;;
5841;SDS011;2947;52.276;9.946;2022-10-22T12:30:32;9.30;;;2.20;;
5841;SDS011;2947;52.276;9.946;2022-10-22T12:33:00;10.13;;;2.97;;
5841;SDS011;2947;52.276;9.946;2022-10-22T12:35:30;5.18;;;1.73;;
5841;SDS011;2947;52.276;9.946;2022-10-22T12:38:00;7.43;;;2.67;;
5841;SDS011;2947;52.276;9.946;2022-10-22T12:40:34;7.07;;;1.98;;
5841;SDS011;2947;52.276;9.946;2022-10-22T12:43:01;7.45;;;2.10;;
5841;SDS011;2947;52.276;9.946;2022-10-22T12:45:38;7.07;;;1.95;;
5841;SDS011;2947;52.276;9.946;2022-10-22T12:48:13;5.97;;;2.35;;
5841;SDS011;2947;52.276;9.946;2022-10-22T12:50:50;5.47;;;1.92;;
5841;SDS011;2947;52.276;9.946;2022-10-22T12:53:28;8.05;;;1.75;;
5841;SDS011;2947;52.276;9.946;2022-10-22T12:56:01;5.38;;;1.90;;
5841;SDS011;2947;52.276;9.946;2022-10-22T12:58:39;6.65;;;2.40;;
5841;SDS011;2947;52.276;9.946;2022-10-22T13:01:13;3.47;;;2.00;;
5841;SDS011;2947;52.276;9.946;2022-10-22T13:03:42;14.38;;;2.45;;
5841;SDS011;2947;52.276;9.946;2022-10-22T13:09:36;5.20;;;1.65;;
5841;SDS011;2947;52.276;9.946;2022-10-22T13:11:55;12.25;;;2.08;;
5841;SDS011;2947;52.276;9.946;2022-10-22T13:14:35;5.93;;;1.60;;
5841;SDS011;2947;52.276;9.946;2022-10-22T13:17:16;5.55;;;1.42;;
5841;SDS011;2947;52.276;9.946;2022-10-22T13:19:46;8.52;;;1.55;;
5841;SDS011;2947;52.276;9.946;2022-10-22T13:27:43;7.00;;;1.88;;
5841;SDS011;2947;52.276;9.946;2022-10-22T13:30:27;6.40;;;1.75;;
5841;SDS011;2947;52.276;9.946;2022-10-22T13:35:46;4.50;;;1.27;;
5841;SDS011;2947;52.276;9.946;2022-10-22T13:38:17;10.55;;;1.77;;
5841;SDS011;2947;52.276;9.946;2022-10-22T13:40:44;4.50;;;1.52;;
5841;SDS011;2947;52.276;9.946;2022-10-22T13:43:11;5.47;;;1.42;;
5841;SDS011;2947;52.276;9.946;2022-10-22T13:45:36;11.00;;;1.95;;
5841;SDS011;2947;52.276;9.946;2022-10-22T13:48:02;10.30;;;1.52;;
5841;SDS011;2947;52.276;9.946;2022-10-22T13:50:28;9.55;;;1.45;;
5841;SDS011;2947;52.276;9.946;2022-10-22T13:52:55;7.75;;;1.60;;
5841;SDS011;2947;52.276;9.946;2022-10-22T13:55:23;8.40;;;2.00;;
5841;SDS011;2947;52.276;9.946;2022-10-22T13:57:54;8.45;;;2.45;;
5841;SDS011;2947;52.276;9.946;2022-10-22T14:00:22;4.72;;;1.58;;
5841;SDS011;2947;52.276;9.946;2022-10-22T14:02:49;7.95;;;2.20;;
5841;SDS011;2947;52.276;9.946;2022-10-22T14:05:18;5.57;;;2.13;;
5841;SDS011;2947;52.276;9.946;2022-10-22T14:07:45;9.43;;;2.38;;
5841;SDS011;2947;52.276;9.946;2022-10-22T14:10:16;7.20;;;1.90;;
5841;SDS011;2947;52.276;9.946;2022-10-22T14:12:41;7.50;;;1.88;;
5841;SDS011;2947;52.276;9.946;2022-10-22T14:15:08;9.05;;;2.13;;
5841;SDS011;2947;52.276;9.946;2022-10-22T14:17:37;6.25;;;2.25;;
5841;SDS011;2947;52.276;9.946;2022-10-22T14:20:04;6.10;;;2.38;;
5841;SDS011;2947;52.276;9.946;2022-10-22T14:22:30;4.80;;;1.88;;
5841;SDS011;2947;52.276;9.946;2022-10-22T14:24:56;7.68;;;2.60;;
5841;SDS011;2947;52.276;9.946;2022-10-22T14:27:21;10.00;;;2.50;;
5841;SDS011;2947;52.276;9.946;2022-10-22T14:29:47;6.95;;;2.20;;
5841;SDS011;2947;52.276;9.946;2022-10-22T14:32:13;11.50;;;2.55;;
5841;SDS011;2947;52.276;9.946;2022-10-22T14:34:44;7.93;;;2.08;;
5841;SDS011;2947;52.276;9.946;2022-10-22T14:37:17;7.00;;;1.90;;
5841;SDS011;2947;52.276;9.946;2022-10-22T14:39:45;8.25;;;2.55;;
5841;SDS011;2947;52.276;9.946;2022-10-22T14:42:15;6.13;;;2.17;;
5841;SDS011;2947;52.276;9.946;2022-10-22T14:44:42;10.63;;;2.70;;
5841;SDS011;2947;52.276;9.946;2022-10-22T14:47:08;7.38;;;2.47;;
5841;SDS011;2947;52.276;9.946;2022-10-22T14:49:34;9.02;;;2.72;;
5841;SDS011;2947;52.276;9.946;2022-10-22T14:51:59;13.65;;;2.60;;
5841;SDS011;2947;52.276;9.946;2022-10-22T14:54:25;8.20;;;2.38;;
5841;SDS011;2947;52.276;9.946;2022-10-22T14:56:51;6.32;;;2.20;;
5841;SDS011;2947;52.276;9.946;2022-10-22T14:59:17;8.13;;;2.30;;
5841;SDS011;2947;52.276;9.946;2022-10-22T15:01:42;6.75;;;2.40;;
5841;SDS011;2947;52.276;9.946;2022-10-22T15:04:08;11.25;;;2.70;;
5841;SDS011;2947;52.276;9.946;2022-10-22T15:06:34;6.00;;;2.15;;
5841;SDS011;2947;52.276;9.946;2022-10-22T15:09:00;7.88;;;2.38;;
5841;SDS011;2947;52.276;9.946;2022-10-22T15:11:26;8.68;;;2.80;;
5841;SDS011;2947;52.276;9.946;2022-10-22T15:13:52;6.18;;;2.47;;
5841;SDS011;2947;52.276;9.946;2022-10-22T15:16:18;8.20;;;2.17;;
5841;SDS011;2947;52.276;9.946;2022-10-22T15:18:43;6.15;;;1.80;;
5841;SDS011;2947;52.276;9.946;2022-10-22T15:21:13;8.65;;;1.88;;
5841;SDS011;2947;52.276;9.946;2022-10-22T15:23:41;7.20;;;2.10;;
5841;SDS011;2947;52.276;9.946;2022-10-22T15:26:07;6.53;;;1.90;;
5841;SDS011;2947;52.276;9.946;2022-10-22T15:28:35;6.78;;;2.05;;
5841;SDS011;2947;52.276;9.946;2022-10-22T15:31:03;7.05;;;2.50;;
5841;SDS011;2947;52.276;9.946;2022-10-22T15:33:30;4.82;;;1.70;;
5841;SDS011;2947;52.276;9.946;2022-10-22T15:35:55;8.57;;;2.20;;
5841;SDS011;2947;52.276;9.946;2022-10-22T15:38:31;4.63;;;1.88;;
5841;SDS011;2947;52.276;9.946;2022-10-22T15:41:00;7.93;;;1.83;;
5841;SDS011;2947;52.276;9.946;2022-10-22T15:43:27;7.13;;;3.30;;
5841;SDS011;2947;52.276;9.946;2022-10-22T15:46:03;7.53;;;2.00;;
5841;SDS011;2947;52.276;9.946;2022-10-22T15:48:34;5.28;;;1.75;;
5841;SDS011;2947;52.276;9.946;2022-10-22T15:51:05;5.35;;;2.10;;
5841;SDS011;2947;52.276;9.946;2022-10-22T15:53:33;7.60;;;1.90;;
5841;SDS011;2947;52.276;9.946;2022-10-22T15:55:59;4.25;;;1.63;;
5841;SDS011;2947;52.276;9.946;2022-10-22T15:58:24;4.75;;;1.58;;
5841;SDS011;2947;52.276;9.946;2022-10-22T16:00:50;10.82;;;3.10;;
5841;SDS011;2947;52.276;9.946;2022-10-22T16:03:16;5.15;;;2.10;;
5841;SDS011;2947;52.276;9.946;2022-10-22T16:05:48;7.40;;;1.70;;
5841;SDS011;2947;52.276;9.946;2022-10-22T16:08:19;4.85;;;2.38;;
5841;SDS011;2947;52.276;9.946;2022-10-22T16:10:45;8.88;;;2.47;;
5841;SDS011;2947;52.276;9.946;2022-10-22T16:13:12;7.60;;;2.03;;
5841;SDS011;2947;52.276;9.946;2022-10-22T16:15:39;4.53;;;1.83;;
5841;SDS011;2947;52.276;9.946;2022-10-22T16:18:05;7.15;;;2.72;;
5841;SDS011;2947;52.276;9.946;2022-10-22T16:20:30;13.23;;;2.38;;
5841;SDS011;2947;52.276;9.946;2022-10-22T16:22:56;8.68;;;2.17;;
5841;SDS011;2947;52.276;9.946;2022-10-22T16:25:22;5.65;;;2.28;;
5841;SDS011;2947;52.276;9.946;2022-10-22T16:27:49;7.45;;;2.33;;
5841;SDS011;2947;52.276;9.946;2022-10-22T16:30:16;8.55;;;2.58;;
5841;SDS011;2947;52.276;9.946;2022-10-22T16:32:42;6.70;;;2.10;;
5841;SDS011;2947;52.276;9.946;2022-10-22T16:35:08;6.32;;;2.28;;
5841;SDS011;2947;52.276;9.946;2022-10-22T16:37:33;5.25;;;2.00;;
5841;SDS011;2947;52.276;9.946;2022-10-22T16:39:59;11.60;;;2.40;;
5841;SDS011;2947;52.276;9.946;2022-10-22T16:42:26;5.47;;;2.33;;
5841;SDS011;2947;52.276;9.946;2022-10-22T16:44:51;9.77;;;2.40;;
5841;SDS011;2947;52.276;9.946;2022-10-22T16:47:17;10.68;;;2.63;;
5841;SDS011;2947;52.276;9.946;2022-10-22T16:49:43;8.82;;;2.45;;
5841;SDS011;2947;52.276;9.946;2022-10-22T16:52:09;11.82;;;2.05;;
5841;SDS011;2947;52.276;9.946;2022-10-22T16:54:34;7.53;;;2.40;;